Time;durP1;ratioP1;P1;durP2;ratioP2;P2;SDS_P1;SDS_P2;PMS_P1;PMS_P2;Temp;Humidity;BMP_temperature;BMP_pressure;BME280_temperature;BME280_humidity;BME280_pressure;Samples;Min_cycle;Max_cycle;Signal;HPM_P1;HPM_P2
2023/01/30 00:00:20;;;;;;;35.22;19.52;;;;;;;3.81;100.00;101777.47;5029371;28;20036;-69
2023/01/30 00:02:45;;;;;;;35.35;18.50;;;;;;;3.82;100.00;101777.31;5029047;28;20068;-69
2023/01/30 00:05:11;;;;;;;32.80;15.27;;;;;;;3.85;100.00;101749.84;5029254;28;20136;-69
2023/01/30 00:07:36;;;;;;;31.17;17.52;;;;;;;3.88;100.00;101750.44;5029274;28;20069;-67
2023/01/30 00:10:02;;;;;;;33.08;18.65;;;;;;;3.88;100.00;101744.34;5029156;28;20076;-67
2023/01/30 00:12:27;;;;;;;33.63;17.90;;;;;;;3.93;100.00;101753.53;5029274;28;20033;-67
2023/01/30 00:14:53;;;;;;;33.80;16.80;;;;;;;3.96;100.00;101755.06;5029058;28;20533;-69
2023/01/30 00:17:18;;;;;;;40.75;17.30;;;;;;;3.99;100.00;101743.41;5029049;28;20038;-70
2023/01/30 00:19:43;;;;;;;32.53;16.67;;;;;;;4.02;100.00;101722.03;5029050;28;20035;-69
2023/01/30 00:22:08;;;;;;;31.35;17.02;;;;;;;4.05;100.00;101727.88;5029220;28;20041;-69
2023/01/30 00:24:34;;;;;;;34.17;18.02;;;;;;;4.10;100.00;101738.88;5029011;28;20120;-69
2023/01/30 00:26:59;;;;;;;33.20;18.45;;;;;;;4.15;100.00;101741.13;5029107;28;20056;-69
2023/01/30 00:29:24;;;;;;;33.08;18.13;;;;;;;4.20;100.00;101733.63;5029046;28;20025;-69
2023/01/30 00:31:50;;;;;;;34.63;18.58;;;;;;;4.23;100.00;101736.00;5028866;28;20388;-69
2023/01/30 00:34:15;;;;;;;36.83;16.63;;;;;;;4.24;100.00;101724.47;5028944;28;20030;-69
2023/01/30 00:36:41;;;;;;;35.33;18.20;;;;;;;4.26;100.00;101732.25;5028908;28;20075;-69
2023/01/30 00:39:06;;;;;;;29.63;16.73;;;;;;;4.27;100.00;101718.94;5028990;28;20038;-69
2023/01/30 00:47:05;;;;;;;31.92;16.40;;;;;;;4.35;100.00;101718.28;5031321;28;20132;-69
2023/01/30 00:49:31;;;;;;;32.90;18.80;;;;;;;4.39;100.00;101719.66;5032731;28;20086;-69
2023/01/30 00:51:56;;;;;;;32.60;16.73;;;;;;;4.42;100.00;101716.72;5032528;28;20411;-69
2023/01/30 00:54:22;;;;;;;31.20;17.75;;;;;;;4.42;100.00;101729.94;5032441;28;20029;-69
2023/01/30 00:56:47;;;;;;;33.85;16.67;;;;;;;4.43;100.00;101717.56;5032420;28;20021;-69
2023/01/30 00:59:13;;;;;;;36.05;17.38;;;;;;;4.44;100.00;101711.34;5032402;28;20040;-64
2023/01/30 01:01:38;;;;;;;30.83;16.10;;;;;;;4.47;100.00;101711.88;5032388;28;20033;-63
2023/01/30 01:04:05;;;;;;;31.83;16.73;;;;;;;4.48;100.00;101697.72;5032678;28;20037;-63
2023/01/30 01:06:31;;;;;;;33.28;16.75;;;;;;;4.50;100.00;101700.22;5032447;28;20025;-63
2023/01/30 01:08:56;;;;;;;31.60;17.33;;;;;;;4.52;100.00;101701.75;5032241;28;20037;-64
2023/01/30 01:11:24;;;;;;;32.58;19.33;;;;;;;4.55;100.00;101706.75;5032095;28;20220;-64
2023/01/30 01:13:54;;;;;;;33.13;18.83;;;;;;;4.56;100.00;101697.06;5032420;28;20515;-64
2023/01/30 01:16:20;;;;;;;33.08;18.75;;;;;;;4.56;100.00;101687.31;5031977;28;20025;-64
2023/01/30 01:18:46;;;;;;;30.83;15.35;;;;;;;4.59;100.00;101686.19;5032073;28;20029;-64
2023/01/30 01:21:12;;;;;;;33.85;17.90;;;;;;;4.60;100.00;101682.56;5032089;28;20033;-64
2023/01/30 01:23:38;;;;;;;35.85;20.17;;;;;;;4.64;100.00;101684.00;5031887;28;20048;-64
2023/01/30 01:26:04;;;;;;;32.67;17.52;;;;;;;4.64;100.00;101683.13;5032010;28;20025;-64
2023/01/30 01:28:29;;;;;;;31.70;16.67;;;;;;;4.65;100.00;101677.72;5031859;28;20370;-64
2023/01/30 01:30:54;;;;;;;35.63;19.42;;;;;;;4.67;100.00;101673.13;5031741;28;20037;-64
2023/01/30 01:33:20;;;;;;;29.50;16.25;;;;;;;4.69;100.00;101670.34;5032126;28;20044;-64
2023/01/30 01:35:46;;;;;;;29.17;17.23;;;;;;;4.69;100.00;101668.56;5031625;28;20573;-64
2023/01/30 01:38:12;;;;;;;31.98;16.65;;;;;;;4.72;100.00;101672.72;5031846;28;20033;-64
2023/01/30 01:43:23;;;;;;;31.55;17.05;;;;;;;4.80;100.00;101672.88;5031541;28;20064;-64
2023/01/30 01:45:56;;;;;;;33.92;19.17;;;;;;;4.81;100.00;101663.97;5031833;28;20033;-64
2023/01/30 01:48:31;;;;;;;32.90;17.20;;;;;;;4.81;100.00;101656.03;5031750;28;20036;-64
2023/01/30 01:51:01;;;;;;;32.78;16.85;;;;;;;4.88;100.00;101643.09;5031474;28;20033;-64
2023/01/30 01:53:35;;;;;;;31.25;15.85;;;;;;;4.89;100.00;101637.66;5031911;28;20044;-63
2023/01/30 01:56:02;;;;;;;32.65;16.60;;;;;;;4.90;100.00;101635.84;5031418;28;20108;-63
2023/01/30 01:58:36;;;;;;;30.50;16.65;;;;;;;4.88;100.00;101627.25;5030826;28;20041;-64
2023/01/30 02:01:01;;;;;;;30.48;17.27;;;;;;;4.95;100.00;101628.34;5031317;28;20171;-64
2023/01/30 02:03:31;;;;;;;31.25;16.52;;;;;;;4.95;100.00;101626.56;5031290;28;20108;-64
2023/01/30 02:06:01;;;;;;;28.95;16.77;;;;;;;4.98;100.00;101628.06;5031131;28;20691;-64
2023/01/30 02:08:30;;;;;;;30.42;16.42;;;;;;;4.99;100.00;101621.81;5031296;28;20025;-64
2023/01/30 02:10:56;;;;;;;33.13;17.17;;;;;;;4.99;100.00;101619.16;5031085;28;20033;-63
2023/01/30 02:13:22;;;;;;;31.75;16.25;;;;;;;5.00;100.00;101612.88;5031168;28;20025;-64
2023/01/30 02:15:49;;;;;;;29.67;17.85;;;;;;;5.00;100.00;101608.47;5031356;28;20067;-64
2023/01/30 02:18:14;;;;;;;37.55;20.30;;;;;;;4.99;100.00;101598.00;5030838;28;20473;-64
2023/01/30 02:20:53;;;;;;;29.17;16.83;;;;;;;5.00;100.00;101604.94;5030914;28;20043;-64
2023/01/30 02:24:00;;;;;;;33.42;18.35;;;;;;;5.02;100.00;101603.00;5030881;28;20435;-61
2023/01/30 02:26:47;;;;;;;30.77;15.50;;;;;;;5.00;100.00;101599.66;4969448;28;20485;-64
2023/01/30 02:29:21;;;;;;;34.20;18.05;;;;;;;5.00;100.00;101597.88;5029087;28;20051;-64
2023/01/30 02:31:55;;;;;;;31.75;16.08;;;;;;;4.99;100.00;101595.38;5030751;28;20469;-64
2023/01/30 02:34:49;;;;;;;29.75;15.85;;;;;;;5.03;100.00;101594.94;5030518;28;20507;-64
2023/01/30 02:37:14;;;;;;;28.63;16.08;;;;;;;5.01;100.00;101588.13;5030637;28;20057;-64
2023/01/30 02:39:51;;;;;;;30.50;17.38;;;;;;;5.01;100.00;101583.69;5030627;28;20114;-61
2023/01/30 02:42:33;;;;;;;30.20;16.83;;;;;;;5.03;100.00;101591.44;5030155;28;20060;-64
2023/01/30 02:45:11;;;;;;;30.88;18.08;;;;;;;5.03;100.00;101594.94;5030391;28;20100;-64
2023/01/30 02:47:43;;;;;;;29.42;15.88;;;;;;;5.05;100.00;101600.06;5030424;28;20033;-64
2023/01/30 02:50:23;;;;;;;31.30;19.42;;;;;;;5.05;100.00;101587.69;5012586;28;20029;-64
2023/01/30 02:52:49;;;;;;;31.92;17.65;;;;;;;5.03;100.00;101580.88;5030362;28;20017;-64
2023/01/30 02:55:23;;;;;;;28.70;16.17;;;;;;;5.04;100.00;101570.16;5030168;28;20035;-64
2023/01/30 02:57:48;;;;;;;33.13;16.95;;;;;;;5.03;100.00;101572.94;5030177;28;20045;-61
2023/01/30 03:00:21;;;;;;;29.98;14.98;;;;;;;5.04;100.00;101577.28;5030081;28;20029;-61
2023/01/30 03:03:31;;;;;;;30.92;17.25;;;;;;;5.05;100.00;101566.53;5030067;28;20025;-61
2023/01/30 03:06:15;;;;;;;29.00;15.50;;;;;;;5.05;100.00;101565.72;4949439;29;20043;-61
2023/01/30 03:08:58;;;;;;;34.95;20.02;;;;;;;5.03;100.00;101554.44;5028106;28;20041;-61
2023/01/30 03:11:33;;;;;;;31.45;14.13;;;;;;;5.01;100.00;101551.97;5029429;28;20112;-62
2023/01/30 03:14:08;;;;;;;30.85;16.38;;;;;;;4.99;100.00;101542.50;5030011;28;20029;-61
2023/01/30 03:16:40;;;;;;;30.05;17.25;;;;;;;4.99;100.00;101543.31;5029755;28;20556;-61
2023/01/30 03:19:11;;;;;;;31.05;16.17;;;;;;;5.00;100.00;101554.72;5029798;28;20120;-67
2023/01/30 03:21:43;;;;;;;30.15;16.48;;;;;;;4.99;100.00;101553.91;5029959;28;20029;-67
2023/01/30 03:24:10;;;;;;;29.70;17.20;;;;;;;4.98;100.00;101543.50;5029827;28;20496;-67
2023/01/30 03:26:42;;;;;;;28.50;17.33;;;;;;;4.98;100.00;101540.84;5029693;28;20075;-67
2023/01/30 03:29:07;;;;;;;;;;;;;;;4.98;100.00;101531.09;5030185;28;20025;-67
2023/01/30 03:31:32;;;;;;;29.88;14.23;;;;;;;4.97;100.00;101539.16;5029702;28;20334;-67
2023/01/30 03:33:57;;;;;;;32.05;18.35;;;;;;;4.97;100.00;101547.09;5029541;28;20116;-67
2023/01/30 03:36:23;;;;;;;30.48;15.27;;;;;;;4.98;100.00;101546.13;5029370;28;20381;-67
2023/01/30 03:38:50;;;;;;;31.08;15.48;;;;;;;4.98;100.00;101538.19;5029590;28;20504;-67
2023/01/30 03:41:16;;;;;;;30.52;17.05;;;;;;;4.98;100.00;101530.28;5029328;28;20087;-69
2023/01/30 03:43:41;;;;;;;30.27;17.35;;;;;;;4.97;100.00;101525.94;5029353;28;20062;-69
2023/01/30 03:46:07;;;;;;;30.05;17.38;;;;;;;4.98;100.00;101514.41;5029454;28;20076;-69
2023/01/30 03:48:32;;;;;;;28.38;16.30;;;;;;;4.96;100.00;101524.28;5029516;28;20449;-69
2023/01/30 03:50:58;;;;;;;30.38;16.38;;;;;;;4.96;100.00;101513.72;5029434;28;20029;-69
2023/01/30 03:53:23;;;;;;;29.95;15.82;;;;;;;4.97;100.00;101523.31;5029421;28;20033;-69
2023/01/30 03:55:48;;;;;;;26.05;14.00;;;;;;;4.97;100.00;101523.31;5029277;28;20119;-69
2023/01/30 03:58:14;;;;;;;29.35;16.35;;;;;;;4.97;100.00;101518.84;5029309;28;20052;-69
2023/01/30 04:00:39;;;;;;;30.98;16.35;;;;;;;4.97;100.00;101524.13;5029355;28;20032;-67
2023/01/30 04:03:04;;;;;;;29.42;15.07;;;;;;;4.98;100.00;101525.81;5029583;28;20029;-67
2023/01/30 04:05:30;;;;;;;33.03;16.83;;;;;;;4.99;100.00;101526.63;5029246;28;20048;-67
2023/01/30 04:07:56;;;;;;;27.25;15.65;;;;;;;4.99;100.00;101529.28;5029398;28;20385;-69
2023/01/30 04:10:22;;;;;;;33.92;15.27;;;;;;;4.99;100.00;101529.28;5029104;28;20043;-69
2023/01/30 04:12:47;;;;;;;28.95;15.45;;;;;;;5.05;100.00;101536.63;5029111;28;20125;-69
2023/01/30 04:15:13;;;;;;;30.73;16.25;;;;;;;5.07;100.00;101529.41;5029073;28;20026;-69
2023/01/30 04:17:38;;;;;;;26.50;13.45;;;;;;;5.09;100.00;101529.25;5029232;28;20057;-67
2023/01/30 04:20:04;;;;;;;28.30;13.07;;;;;;;5.13;100.00;101527.97;5029029;28;20037;-69
2023/01/30 04:22:29;;;;;;;32.63;13.52;;;;;;;5.14;100.00;101525.22;5032433;28;20033;-69
2023/01/30 04:24:55;;;;;;;23.80;12.43;;;;;;;5.20;100.00;101524.63;5033110;28;20024;-70
2023/01/30 04:27:20;;;;;;;22.52;12.10;;;;;;;5.24;100.00;101520.72;5033028;28;20033;-70
2023/01/30 04:29:46;;;;;;;23.83;11.50;;;;;;;5.26;100.00;101515.25;5033051;28;20432;-69
2023/01/30 04:32:11;;;;;;;26.60;12.73;;;;;;;5.29;100.00;101514.97;5033069;28;20045;-70
2023/01/30 04:34:36;;;;;;;26.23;11.63;;;;;;;5.33;100.00;101515.53;5032717;28;20082;-70
2023/01/30 04:37:02;;;;;;;21.60;9.77;;;;;;;5.36;100.00;101518.69;5032681;28;20473;-69
2023/01/30 04:39:27;;;;;;;20.10;9.45;;;;;;;5.39;100.00;101525.50;5032914;28;20033;-69
2023/01/30 04:41:52;;;;;;;19.70;9.38;;;;;;;5.41;100.00;101526.22;5033031;28;20033;-69
2023/01/30 04:44:18;;;;;;;24.60;10.48;;;;;;;5.45;100.00;101519.66;5032609;28;20434;-69
2023/01/30 04:46:43;;;;;;;19.77;8.30;;;;;;;5.48;100.00;101519.38;5032720;28;20025;-70
2023/01/30 04:49:09;;;;;;;26.15;9.02;;;;;;;5.51;100.00;101519.06;5032494;28;20032;-70
2023/01/30 04:51:35;;;;;;;19.27;10.30;;;;;;;5.51;100.00;101516.41;5032631;28;20393;-64
2023/01/30 04:54:00;;;;;;;15.40;7.55;;;;;;;5.60;100.00;101533.22;5032368;28;20029;-64
2023/01/30 04:56:26;;;;;;;19.48;8.15;;;;;;;5.62;100.00;101526.78;5032467;28;20076;-64
2023/01/30 04:58:51;;;;;;;17.27;8.65;;;;;;;5.65;100.00;101526.50;5032451;28;20120;-64
2023/01/30 05:01:30;;;;;;;20.95;7.95;;;;;;;5.69;100.00;101519.13;5032358;28;20033;-64
2023/01/30 05:03:55;;;;;;;16.42;8.10;;;;;;;5.72;100.00;101519.63;5032400;28;20061;-64
2023/01/30 05:06:21;;;;;;;17.85;8.02;;;;;;;5.73;100.00;101528.41;5032243;28;20053;-62
2023/01/30 05:08:51;;;;;;;13.23;6.57;;;;;;;5.75;100.00;101528.28;5032238;28;20428;-64
2023/01/30 05:11:18;;;;;;;15.75;7.82;;;;;;;5.76;100.00;101525.47;5032133;28;20129;-64
2023/01/30 05:13:43;;;;;;;17.73;7.72;;;;;;;5.78;100.00;101528.78;5032240;28;20048;-64
2023/01/30 05:16:10;;;;;;;20.95;7.68;;;;;;;5.82;100.00;101532.00;5031878;28;20037;-62
2023/01/30 05:18:35;;;;;;;20.45;8.30;;;;;;;5.85;100.00;101537.00;5032191;28;20036;-62
2023/01/30 05:21:09;;;;;;;18.60;7.95;;;;;;;5.89;100.00;101530.41;5032212;28;20053;-61
2023/01/30 05:23:34;;;;;;;23.20;7.43;;;;;;;5.90;100.00;101518.84;5031826;28;20534;-62
2023/01/30 05:26:00;;;;;;;17.05;7.00;;;;;;;5.87;100.00;101525.28;5032277;28;20041;-62
2023/01/30 05:28:27;;;;;;;18.77;7.03;;;;;;;5.92;100.00;101519.50;5032092;28;20083;-64
2023/01/30 05:30:53;;;;;;;15.02;7.65;;;;;;;5.93;100.00;101516.75;5032087;28;20439;-64
2023/01/30 05:33:18;;;;;;;13.52;6.97;;;;;;;5.91;100.00;101521.31;5031078;28;20033;-64
2023/01/30 05:35:47;;;;;;;20.90;6.55;;;;;;;5.88;100.00;101518.16;5031658;28;20389;-64
2023/01/30 05:38:14;;;;;;;13.95;5.88;;;;;;;5.91;100.00;101516.03;5031720;28;20124;-62
2023/01/30 05:40:39;;;;;;;14.00;6.28;;;;;;;5.90;100.00;101521.50;5031721;28;20029;-65
2023/01/30 05:43:04;;;;;;;14.52;6.50;;;;;;;5.89;100.00;101522.44;5031677;28;20067;-64
2023/01/30 05:45:30;;;;;;;18.58;6.28;;;;;;;5.87;100.00;101506.75;5031649;28;20029;-64
2023/01/30 05:47:55;;;;;;;13.48;5.82;;;;;;;5.89;100.00;101519.81;5031608;28;20025;-64
2023/01/30 05:50:20;;;;;;;14.70;6.40;;;;;;;5.88;100.00;101508.38;5031555;28;20033;-64
2023/01/30 05:52:46;;;;;;;14.55;5.03;;;;;;;5.87;100.00;101511.22;5031328;28;20088;-64
2023/01/30 05:55:11;;;;;;;13.38;5.53;;;;;;;5.88;100.00;101521.63;5031283;28;20362;-64
2023/01/30 05:57:37;;;;;;;12.52;4.85;;;;;;;5.90;100.00;101521.50;5031344;28;20072;-64
2023/01/30 06:00:03;;;;;;;8.52;5.03;;;;;;;5.90;100.00;101535.56;5031598;28;20037;-64
2023/01/30 06:02:30;;;;;;;13.75;5.53;;;;;;;5.90;100.00;101532.91;5031372;28;20037;-61
2023/01/30 06:04:55;;;;;;;18.00;4.75;;;;;;;5.93;100.00;101540.56;5031208;28;20021;-64
2023/01/30 06:07:21;;;;;;;18.85;6.00;;;;;;;5.98;100.00;101526.06;5031163;28;20043;-64
2023/01/30 06:09:46;;;;;;;13.65;4.53;;;;;;;5.99;100.00;101552.38;5031446;28;20075;-64
2023/01/30 06:12:11;;;;;;;16.13;5.22;;;;;;;6.00;100.00;101540.81;5031184;28;20042;-64
2023/01/30 06:14:37;;;;;;;13.77;4.93;;;;;;;6.03;100.00;101552.94;5031181;28;20032;-63
2023/01/30 06:17:02;;;;;;;14.50;4.95;;;;;;;6.09;100.00;101542.56;5030892;28;20324;-64
2023/01/30 06:19:27;;;;;;;20.90;4.15;;;;;;;6.10;100.00;101546.91;5031267;28;20114;-63
2023/01/30 06:21:53;;;;;;;12.02;4.45;;;;;;;6.07;100.00;101549.00;5030798;28;20037;-64
2023/01/30 06:24:18;;;;;;;13.23;4.82;;;;;;;6.05;100.00;101553.59;5031085;28;20049;-64
2023/01/30 06:26:43;;;;;;;11.18;4.85;;;;;;;6.06;100.00;101557.94;5030713;28;20026;-63
2023/01/30 06:29:09;;;;;;;11.98;4.75;;;;;;;6.00;100.00;101550.56;5030792;28;20535;-63
2023/01/30 06:31:34;;;;;;;10.63;3.35;;;;;;;5.98;100.00;101571.09;5030783;28;20385;-64
2023/01/30 06:33:59;;;;;;;16.10;3.53;;;;;;;5.96;100.00;101575.69;5030858;28;20028;-64
2023/01/30 06:36:25;;;;;;;13.85;4.28;;;;;;;5.92;100.00;101567.16;5030543;28;20036;-64
2023/01/30 06:38:50;;;;;;;14.68;4.82;;;;;;;5.92;100.00;101572.44;5030740;28;20033;-63
2023/01/30 06:41:15;;;;;;;12.23;3.35;;;;;;;5.89;100.00;101588.63;5030603;28;20038;-64
2023/01/30 06:43:41;;;;;;;15.85;6.30;;;;;;;5.82;100.00;101577.81;5030217;28;20090;-64
2023/01/30 06:46:07;;;;;;;12.48;4.07;;;;;;;5.77;100.00;101584.53;5030451;28;20065;-63
2023/01/30 06:48:32;;;;;;;13.10;3.78;;;;;;;5.70;100.00;101566.59;5030385;28;20473;-64
2023/01/30 06:50:57;;;;;;;8.70;3.45;;;;;;;5.61;100.00;101580.72;5030422;28;20033;-63
2023/01/30 06:53:29;;;;;;;7.55;3.45;;;;;;;5.56;100.00;101576.84;5030255;28;20130;-63
2023/01/30 06:55:55;;;;;;;5.72;3.20;;;;;;;5.55;100.00;101580.44;5030213;28;20516;-63
2023/01/30 06:58:20;;;;;;;9.88;3.60;;;;;;;5.52;100.00;101575.44;5030208;28;20492;-64
2023/01/30 07:00:46;;;;;;;22.30;4.57;;;;;;;5.46;100.00;101567.13;5029733;28;20041;-63
2023/01/30 07:03:13;;;;;;;6.32;3.20;;;;;;;5.42;100.00;101565.75;5030192;28;20108;-63
2023/01/30 07:05:40;;;;;;;13.25;3.33;;;;;;;5.42;100.00;101572.84;5030072;28;20029;-63
2023/01/30 07:08:05;;;;;;;7.50;3.38;;;;;;;5.40;100.00;101573.00;5030019;28;20029;-63
2023/01/30 07:10:31;;;;;;;15.40;3.42;;;;;;;5.37;100.00;101575.06;5029952;28;20037;-64
2023/01/30 07:12:57;;;;;;;12.57;3.30;;;;;;;5.34;100.00;101585.94;5029913;28;20481;-63
2023/01/30 07:15:22;;;;;;;7.82;2.20;;;;;;;5.33;100.00;101592.22;5029805;28;20038;-63
2023/01/30 07:17:48;;;;;;;6.05;2.42;;;;;;;5.24;100.00;101593.94;5029704;28;20030;-63
2023/01/30 07:20:13;;;;;;;15.43;4.68;;;;;;;5.21;100.00;101595.06;5029730;28;20037;-63
2023/01/30 07:22:39;;;;;;;9.40;3.72;;;;;;;5.20;100.00;101603.94;5029776;28;20512;-63
2023/01/30 07:25:05;;;;;;;7.88;3.67;;;;;;;5.18;100.00;101608.53;5029762;28;20026;-63
2023/01/30 07:27:30;;;;;;;8.25;2.17;;;;;;;5.19;100.00;101610.22;5029632;28;20033;-64
2023/01/30 07:29:55;;;;;;;12.88;3.20;;;;;;;5.20;100.00;101611.88;5029643;28;20060;-64
2023/01/30 07:32:21;;;;;;;10.30;2.80;;;;;;;5.17;100.00;101614.00;5029556;28;20112;-64
2023/01/30 07:34:47;;;;;;;19.38;3.20;;;;;;;5.13;100.00;101612.59;5029371;28;20037;-64
2023/01/30 07:37:13;;;;;;;12.80;3.50;;;;;;;5.14;100.00;101615.09;5029742;28;20022;-64
2023/01/30 07:39:38;;;;;;;11.90;2.50;;;;;;;5.11;100.00;101620.69;5029666;28;20749;-64
2023/01/30 07:42:04;;;;;;;10.65;2.45;;;;;;;5.12;100.00;101616.22;5028899;28;20064;-66
2023/01/30 07:44:30;;;;;;;18.38;5.28;;;;;;;5.08;100.00;101620.94;5029653;28;20068;-64
2023/01/30 07:46:55;;;;;;;14.32;3.20;;;;;;;5.05;100.00;101615.94;5029557;28;20083;-63
2023/01/30 07:49:21;;;;;;;12.63;2.78;;;;;;;5.07;100.00;101614.00;5029384;28;20029;-68
2023/01/30 07:51:46;;;;;;;15.27;3.90;;;;;;;5.07;100.00;101615.81;5029133;28;20116;-68
2023/01/30 07:54:12;;;;;;;19.33;5.35;;;;;;;5.08;100.00;101601.59;5029110;28;20053;-68
2023/01/30 07:56:37;;;;;;;6.13;2.63;;;;;;;5.10;100.00;101602.31;5010743;28;20385;-68
2023/01/30 07:59:04;;;;;;;7.28;2.60;;;;;;;5.11;100.00;101614.53;5029365;28;20033;-68
2023/01/30 08:01:30;;;;;;;13.25;2.63;;;;;;;5.12;100.00;101618.88;5029286;28;20037;-68
2023/01/30 08:03:55;;;;;;;12.40;2.92;;;;;;;5.14;100.00;101614.28;5029064;28;20029;-68
2023/01/30 08:06:21;;;;;;;18.60;3.20;;;;;;;5.14;100.00;101614.28;5029167;28;20113;-68
2023/01/30 08:08:46;;;;;;;17.52;4.72;;;;;;;5.12;100.00;101619.69;5011382;28;20038;-68
2023/01/30 08:11:11;;;;;;;12.02;2.53;;;;;;;5.14;100.00;101620.41;5029225;28;20107;-68
2023/01/30 08:13:37;;;;;;;15.70;3.90;;;;;;;5.21;100.00;101632.06;5029212;28;20481;-68
2023/01/30 08:16:04;;;;;;;12.90;3.30;;;;;;;5.22;100.00;101640.84;5029173;28;20180;-68
2023/01/30 08:18:31;;;;;;;13.25;2.88;;;;;;;5.24;100.00;101636.25;5029071;28;20531;-68
2023/01/30 08:21:00;;;;;;;10.35;3.67;;;;;;;5.25;100.00;101641.38;5029486;28;20129;-67
2023/01/30 08:23:26;;;;;;;18.30;3.20;;;;;;;5.26;100.00;101650.97;5028979;28;20076;-67
2023/01/30 08:26:00;;;;;;;23.10;3.75;;;;;;;5.31;100.00;101660.31;5029142;28;20033;-67
2023/01/30 08:28:27;;;;;;;9.90;4.03;;;;;;;5.31;100.00;101658.47;5029072;28;20025;-67
2023/01/30 08:30:53;;;;;;;8.35;2.90;;;;;;;5.39;100.00;101657.78;5029057;28;20112;-67
2023/01/30 08:33:19;;;;;;;10.30;3.45;;;;;;;5.44;100.00;101655.53;5029060;28;20115;-67
2023/01/30 08:35:44;;;;;;;24.15;4.57;;;;;;;5.46;100.00;101657.06;5028854;28;20457;-67
2023/01/30 08:38:09;;;;;;;12.57;3.13;;;;;;;5.51;100.00;101655.81;5028809;28;20037;-67
2023/01/30 08:40:35;;;;;;;9.77;2.92;;;;;;;5.54;100.00;101656.34;5028744;28;20048;-68
2023/01/30 08:43:01;;;;;;;14.43;3.15;;;;;;;5.55;100.00;101654.53;5028791;28;20061;-68
2023/01/30 08:45:27;;;;;;;18.25;4.63;;;;;;;5.62;100.00;101667.03;5028871;28;20026;-68
2023/01/30 08:47:52;;;;;;;13.13;3.30;;;;;;;5.66;100.00;101664.97;5004664;28;20084;-69
2023/01/30 08:50:18;;;;;;;13.65;3.33;;;;;;;5.68;100.00;101665.63;5023721;28;20036;-68
2023/01/30 08:52:43;;;;;;;15.85;2.00;;;;;;;5.72;100.00;101672.31;5023764;28;20129;-66
2023/01/30 08:55:09;;;;;;;11.73;2.88;;;;;;;5.78;100.00;101665.59;5024214;28;20078;-69
2023/01/30 08:57:35;;;;;;;12.85;3.50;;;;;;;5.82;100.00;101673.13;5028107;28;20473;-70
2023/01/30 09:00:01;;;;;;;12.52;2.75;;;;;;;5.83;100.00;101666.00;5028691;28;20057;-69
2023/01/30 09:02:26;;;;;;;17.10;4.10;;;;;;;5.89;100.00;101690.09;5028736;28;20079;-68
2023/01/30 09:04:51;;;;;;;11.57;3.65;;;;;;;5.93;99.32;101688.84;5028845;28;20036;-68
2023/01/30 09:07:17;;;;;;;15.73;2.35;;;;;;;5.95;99.71;101680.75;5028619;28;20105;-68
2023/01/30 09:09:43;;;;;;;10.43;1.90;;;;;;;6.01;99.80;101690.75;5032072;28;20033;-68
2023/01/30 09:12:08;;;;;;;12.05;2.50;;;;;;;6.08;98.89;101704.25;5032246;28;20064;-68
2023/01/30 09:14:34;;;;;;;17.48;3.10;;;;;;;6.11;98.27;101702.16;5032092;28;20037;-68
2023/01/30 09:16:59;;;;;;;12.50;3.15;;;;;;;6.17;97.64;101710.50;5014260;28;20057;-68
2023/01/30 09:19:26;;;;;;;7.30;2.78;;;;;;;6.22;99.50;101716.19;5031962;28;20137;-68
2023/01/30 09:21:54;;;;;;;10.60;3.83;;;;;;;6.28;98.11;101707.63;5032031;28;20448;-68
2023/01/30 09:24:20;;;;;;;11.55;3.72;;;;;;;6.30;98.31;101700.38;5032010;28;20055;-68
2023/01/30 09:26:46;;;;;;;10.50;2.33;;;;;;;6.29;96.61;101707.50;5032019;28;20017;-68
2023/01/30 09:29:13;;;;;;;14.93;2.83;;;;;;;6.34;97.94;101709.69;5031716;28;20051;-68
2023/01/30 09:31:39;;;;;;;5.55;1.92;;;;;;;6.40;97.15;101717.06;5031737;28;20085;-69
2023/01/30 09:34:04;;;;;;;7.80;2.45;;;;;;;6.49;96.46;101712.69;5031774;28;20033;-68
2023/01/30 09:36:30;;;;;;;13.98;2.90;;;;;;;6.52;96.20;101720.34;5031775;28;20017;-68
2023/01/30 09:38:55;;;;;;;15.90;3.72;;;;;;;6.54;96.13;101728.97;5031661;28;20116;-68
2023/01/30 09:41:29;;;;;;;9.98;2.85;;;;;;;6.65;94.87;101728.75;5031614;28;20030;-68
2023/01/30 09:44:19;;;;;;;13.43;3.15;;;;;;;6.76;94.97;101725.91;5031638;28;20505;-69
2023/01/30 09:47:03;;;;;;;12.82;3.10;;;;;;;6.77;92.44;101714.31;5031336;28;20635;-69
2023/01/30 09:49:46;;;;;;;18.27;3.00;;;;;;;6.84;94.21;101719.88;5031740;28;20034;-69
2023/01/30 09:52:53;;;;;;;6.30;2.60;;;;;;;6.89;92.76;101730.00;5031498;28;20121;-68
2023/01/30 09:55:22;;;;;;;12.65;3.08;;;;;;;6.86;91.68;101732.94;5030458;28;20468;-68
2023/01/30 09:57:49;;;;;;;14.13;2.95;;;;;;;6.83;91.00;101746.50;5031461;28;20083;-68
2023/01/30 10:00:26;;;;;;;21.80;4.60;;;;;;;6.84;92.19;101740.22;5031400;28;20108;-68
2023/01/30 10:03:06;;;;;;;9.68;3.55;;;;;;;6.84;91.51;101745.53;5031281;28;20515;-68
2023/01/30 10:05:42;;;;;;;10.15;2.85;;;;;;;6.85;90.83;101745.38;5031332;28;20021;-68
2023/01/30 10:08:23;;;;;;;11.27;3.67;;;;;;;6.85;91.92;101744.56;5031315;28;20029;-68
2023/01/30 10:10:52;;;;;;;10.27;3.25;;;;;;;6.86;91.10;101746.22;5031155;28;20370;-68
2023/01/30 10:13:30;;;;;;;10.65;2.15;;;;;;;6.88;90.34;101752.22;5031104;28;20492;-68
2023/01/30 10:16:23;;;;;;;4.72;2.05;;;;;;;6.89;90.35;101744.13;5031088;28;20044;-68
2023/01/30 10:19:03;;;;;;;9.70;2.83;;;;;;;6.91;89.09;101757.19;5030544;28;20087;-68
2023/01/30 10:22:00;;;;;;;10.05;2.13;;;;;;;6.93;89.77;101761.38;5030935;28;20440;-68
2023/01/30 10:24:35;;;;;;;10.18;2.13;;;;;;;6.94;88.78;101747.16;4999560;28;20033;-68
2023/01/30 10:27:01;;;;;;;9.82;2.20;;;;;;;6.97;87.49;101748.66;5031040;28;20388;-69
2023/01/30 10:29:37;;;;;;;15.38;2.13;;;;;;;6.96;86.97;101773.50;5030879;28;20120;-69
2023/01/30 10:32:19;;;;;;;4.63;1.60;;;;;;;7.00;87.24;101757.16;5031024;28;20025;-69
2023/01/30 10:34:51;;;;;;;7.63;1.98;;;;;;;6.99;87.19;101771.38;5030812;28;20083;-68
2023/01/30 10:37:28;;;;;;;14.23;2.63;;;;;;;6.99;86.27;101767.88;5030644;28;20063;-69
2023/01/30 10:40:15;;;;;;;14.07;3.88;;;;;;;7.02;86.38;101772.88;5030604;28;20428;-68
2023/01/30 10:42:40;;;;;;;4.85;1.90;;;;;;;7.01;85.52;101776.53;5030567;28;20064;-65
2023/01/30 10:45:12;;;;;;;10.43;1.90;;;;;;;7.00;87.28;101791.63;5030539;28;20025;-65
2023/01/30 10:47:43;;;;;;;11.55;2.33;;;;;;;6.98;85.49;101772.38;5030451;28;20021;-65
2023/01/30 10:50:20;;;;;;;17.85;3.42;;;;;;;6.99;85.42;101786.47;5030490;28;20119;-65
2023/01/30 10:52:58;;;;;;;10.68;2.80;;;;;;;6.98;86.78;101782.16;5030325;28;20159;-64
2023/01/30 10:55:26;;;;;;;8.80;2.15;;;;;;;6.97;85.44;101786.63;5030184;28;20123;-64
2023/01/30 10:58:13;;;;;;;7.00;3.03;;;;;;;7.01;85.47;101789.78;5030382;28;20033;-65
2023/01/30 11:00:58;;;;;;;14.02;2.92;;;;;;;6.99;85.54;101787.28;5030239;28;20048;-65
2023/01/30 11:03:46;;;;;;;10.35;2.35;;;;;;;6.99;84.98;101789.09;5030663;28;20129;-65
2023/01/30 11:06:22;;;;;;;9.70;2.10;;;;;;;7.02;86.86;101780.84;5014475;28;20131;-65
2023/01/30 11:08:48;;;;;;;12.07;2.75;;;;;;;7.00;87.00;101794.28;5030091;28;20053;-64
2023/01/30 11:11:38;;;;;;;13.57;3.35;;;;;;;7.05;85.97;101779.72;5030174;28;20469;-64
2023/01/30 11:14:06;;;;;;;13.40;2.35;;;;;;;7.09;85.88;101779.28;5029916;28;20025;-65
2023/01/30 11:16:42;;;;;;;11.60;2.08;;;;;;;7.12;85.26;101778.13;5029817;28;20465;-65
2023/01/30 11:19:09;;;;;;;12.80;2.55;;;;;;;7.13;84.90;101778.00;5029995;28;20029;-65
2023/01/30 11:21:35;;;;;;;12.10;2.92;;;;;;;7.10;84.47;101780.09;5029873;28;20459;-65
2023/01/30 11:24:13;;;;;;;13.40;3.30;;;;;;;7.20;84.78;101780.84;5029770;28;20112;-65
2023/01/30 11:26:38;;;;;;;13.02;2.38;;;;;;;7.26;85.70;101788.22;5029816;28;20025;-65
2023/01/30 11:29:26;;;;;;;6.97;2.25;;;;;;;7.43;85.02;101782.06;5029739;28;20042;-65
2023/01/30 11:31:53;;;;;;;11.90;1.77;;;;;;;7.52;85.63;101779.47;5029044;28;20029;-65